Time;durP1;ratioP1;P1;durP2;ratioP2;P2;SDS_P1;SDS_P2;PMS_P1;PMS_P2;Temp;Humidity;BMP_temperature;BMP_pressure;BME280_temperature;BME280_humidity;BME280_pressure;Samples;Min_cycle;Max_cycle;Signal;HPM_P1;HPM_P2
2023/07/19 00:01:57;;;;;;;8.60;4.50;;;15.00;26.50;;;;;;5052530;28;20029;-73
2023/07/19 00:04:24;;;;;;;8.25;4.45;;;14.90;31.90;;;;;;5052941;28;20025;-73
2023/07/19 00:06:49;;;;;;;6.07;3.90;;;14.90;35.60;;;;;;5052508;28;20036;-73
2023/07/19 00:09:15;;;;;;;5.88;3.72;;;14.90;35.20;;;;;;5052943;28;20029;-73
2023/07/19 00:11:40;;;;;;;4.20;3.60;;;14.80;35.80;;;;;;5052815;28;20060;-72
2023/07/19 00:14:07;;;;;;;5.95;4.30;;;14.80;35.90;;;;;;5052380;28;20108;-73
2023/07/19 00:16:33;;;;;;;5.82;3.75;;;14.70;38.80;;;;;;5052531;28;20025;-72
2023/07/19 00:18:59;;;;;;;5.88;4.15;;;14.70;42.20;;;;;;5052798;28;20035;-73
2023/07/19 00:21:25;;;;;;;8.70;3.85;;;14.60;44.10;;;;;;5052740;28;20035;-73
2023/07/19 00:23:50;;;;;;;5.65;3.85;;;14.70;51.40;;;;;;5052335;28;20033;-73
2023/07/19 00:26:16;;;;;;;5.07;3.92;;;14.60;55.50;;;;;;5052918;28;20115;-72
2023/07/19 00:28:42;;;;;;;5.90;3.95;;;14.60;66.40;;;;;;5052020;28;20127;-72
2023/07/19 00:31:07;;;;;;;6.30;4.05;;;14.70;70.40;;;;;;5052655;28;20467;-72
2023/07/19 00:33:33;;;;;;;9.43;5.22;;;14.60;69.20;;;;;;5052593;28;20371;-73
2023/07/19 00:35:58;;;;;;;8.77;5.05;;;14.60;73.20;;;;;;5053747;28;20434;-73
2023/07/19 00:38:24;;;;;;;5.82;4.60;;;14.60;84.50;;;;;;5036466;28;20033;-74
2023/07/19 00:40:49;;;;;;;8.45;4.63;;;14.60;88.10;;;;;;5036460;28;20469;-75
2023/07/19 00:43:15;;;;;;;7.88;4.63;;;14.60;87.50;;;;;;5035844;28;20028;-73
2023/07/19 00:45:50;;;;;;;7.07;5.00;;;14.60;90.40;;;;;;5035769;28;20407;-73
2023/07/19 00:48:17;;;;;;;8.48;4.20;;;14.60;90.30;;;;;;5036222;28;20064;-73
2023/07/19 00:50:45;;;;;;;7.05;4.32;;;14.60;90.20;;;;;;5036089;28;20021;-73
2023/07/19 00:53:12;;;;;;;8.05;5.18;;;14.70;89.30;;;;;;5035698;28;20120;-72
2023/07/19 00:55:38;;;;;;;8.73;5.30;;;14.70;86.10;;;;;;5035992;28;20064;-72
2023/07/19 00:58:04;;;;;;;8.38;4.68;;;14.70;87.80;;;;;;5035583;28;20117;-72
2023/07/19 01:00:30;;;;;;;11.85;5.72;;;14.70;90.00;;;;;;5035930;28;20026;-73
2023/07/19 01:02:56;;;;;;;10.30;5.35;;;14.60;88.20;;;;;;5035933;28;20039;-73
2023/07/19 01:05:21;;;;;;;7.05;4.50;;;14.60;95.80;;;;;;5035510;28;20515;-73
2023/07/19 01:07:47;;;;;;;7.32;4.18;;;14.60;98.10;;;;;;5035858;28;20112;-73
2023/07/19 01:10:13;;;;;;;9.65;4.93;;;14.60;98.40;;;;;;5035361;28;20029;-73
2023/07/19 01:12:39;;;;;;;14.45;5.30;;;14.60;97.50;;;;;;5035651;28;20033;-73
2023/07/19 01:15:09;;;;;;;7.10;4.80;;;14.50;99.80;;;;;;5035197;28;20032;-74
2023/07/19 01:17:35;;;;;;;5.75;4.65;;;14.50;99.90;;;;;;5035653;28;20036;-73
2023/07/19 01:20:01;;;;;;;5.68;4.50;;;14.50;99.90;;;;;;5035584;28;20502;-73
2023/07/19 01:22:33;;;;;;;6.72;4.45;;;14.50;99.90;;;;;;5035060;28;20030;-73
2023/07/19 01:24:59;;;;;;;7.85;4.40;;;14.50;99.90;;;;;;5035501;28;20373;-72
2023/07/19 01:27:25;;;;;;;10.77;4.90;;;14.50;99.90;;;;;;5035536;28;20087;-72
2023/07/19 01:29:50;;;;;;;8.88;4.72;;;14.40;99.90;;;;;;5035082;28;20049;-72
2023/07/19 01:32:17;;;;;;;7.28;5.00;;;14.40;99.90;;;;;;5035560;28;20507;-73
2023/07/19 01:34:43;;;;;;;8.05;4.82;;;14.40;99.90;;;;;;5035234;28;20060;-74
2023/07/19 01:37:08;;;;;;;5.60;4.25;;;14.30;99.90;;;;;;5035221;28;20389;-73
2023/07/19 01:39:34;;;;;;;6.55;4.70;;;14.20;99.90;;;;;;5035175;28;20121;-73
2023/07/19 01:42:00;;;;;;;9.07;5.30;;;14.20;99.90;;;;;;5035228;28;20382;-73
2023/07/19 01:44:26;;;;;;;8.65;4.72;;;14.10;99.90;;;;;;5034624;28;20061;-73
2023/07/19 01:46:51;;;;;;;6.72;4.30;;;14.10;99.90;;;;;;5035127;28;20088;-73
2023/07/19 01:49:17;;;;;;;7.53;4.50;;;14.00;99.90;;;;;;5034919;28;20391;-74
2023/07/19 01:51:43;;;;;;;10.05;5.55;;;14.00;99.90;;;;;;5034875;28;20099;-73
2023/07/19 01:54:08;;;;;;;10.02;5.40;;;14.00;99.90;;;;;;5035090;28;20034;-74
2023/07/19 01:56:34;;;;;;;8.32;4.72;;;13.90;99.90;;;;;;5034917;28;20400;-73
2023/07/19 01:58:59;;;;;;;8.10;4.45;;;13.90;99.90;;;;;;5034820;28;20034;-74
2023/07/19 02:01:25;;;;;;;8.35;4.57;;;13.90;99.90;;;;;;5034241;28;20029;-73
2023/07/19 02:03:50;;;;;;;8.23;4.75;;;13.90;99.90;;;;;;5034862;28;20018;-73
2023/07/19 02:06:16;;;;;;;7.75;5.00;;;13.90;99.90;;;;;;5034818;28;20065;-72
2023/07/19 02:08:41;;;;;;;7.88;4.90;;;13.80;99.90;;;;;;5034419;28;20551;-72
2023/07/19 02:11:07;;;;;;;6.18;4.38;;;13.80;99.90;;;;;;5034218;28;20510;-73
2023/07/19 02:13:32;;;;;;;10.73;4.80;;;13.70;99.90;;;;;;5034184;28;20022;-73
2023/07/19 02:15:58;;;;;;;7.70;5.00;;;13.80;99.90;;;;;;5034529;28;20036;-73
2023/07/19 02:18:23;;;;;;;7.60;5.05;;;13.70;99.90;;;;;;5034148;28;20502;-73
2023/07/19 02:20:51;;;;;;;8.05;4.53;;;13.70;99.90;;;;;;5034535;28;20029;-72
2023/07/19 02:23:18;;;;;;;7.60;4.80;;;13.60;99.90;;;;;;5034539;28;20495;-74
2023/07/19 02:25:46;;;;;;;8.98;5.00;;;13.60;99.90;;;;;;5034249;28;20537;-73
2023/07/19 02:28:12;;;;;;;9.95;5.30;;;13.50;99.90;;;;;;5033968;28;20475;-72
2023/07/19 02:30:42;;;;;;;7.78;5.13;;;13.50;99.90;;;;;;5034391;28;20032;-74
2023/07/19 02:33:09;;;;;;;7.18;5.28;;;13.50;99.90;;;;;;5033825;28;20017;-73
2023/07/19 02:35:35;;;;;;;8.65;5.65;;;13.50;99.90;;;;;;5034167;28;20053;-73
2023/07/19 02:38:00;;;;;;;7.50;5.03;;;13.50;99.90;;;;;;5033708;28;20057;-73
2023/07/19 02:40:26;;;;;;;9.65;6.10;;;13.50;99.90;;;;;;5034235;28;20112;-73
2023/07/19 02:42:51;;;;;;;10.32;6.40;;;13.50;99.90;;;;;;5033767;28;20049;-73
2023/07/19 02:45:17;;;;;;;8.65;5.80;;;13.50;99.90;;;;;;5034200;28;20398;-72
2023/07/19 02:47:42;;;;;;;7.07;5.72;;;13.40;99.90;;;;;;5033868;28;20112;-73
2023/07/19 02:50:08;;;;;;;8.38;5.10;;;13.40;99.90;;;;;;5033388;28;20120;-73
2023/07/19 02:52:34;;;;;;;6.35;4.65;;;13.40;99.90;;;;;;5033609;28;20030;-72
2023/07/19 02:55:00;;;;;;;7.28;5.63;;;13.40;99.90;;;;;;5033808;28;20026;-73
2023/07/19 02:57:26;;;;;;;9.10;5.75;;;13.50;99.90;;;;;;5033356;28;20075;-74
2023/07/19 02:59:51;;;;;;;11.00;5.82;;;13.40;99.90;;;;;;5033041;28;20063;-74
2023/07/19 03:02:17;;;;;;;7.57;5.25;;;13.40;99.90;;;;;;5033855;28;20484;-73
2023/07/19 03:04:42;;;;;;;6.80;5.38;;;13.30;99.90;;;;;;5033637;28;20029;-73
2023/07/19 03:07:08;;;;;;;11.50;5.75;;;13.40;99.90;;;;;;5033273;28;20068;-73
2023/07/19 03:09:33;;;;;;;9.73;5.25;;;13.30;99.90;;;;;;5033348;28;20038;-73
2023/07/19 03:11:59;;;;;;;7.88;5.35;;;13.40;99.90;;;;;;5033721;28;20079;-74
2023/07/19 03:14:24;;;;;;;8.77;5.85;;;13.40;99.90;;;;;;5033749;28;20494;-73
2023/07/19 03:16:50;;;;;;;6.18;4.90;;;13.50;99.90;;;;;;5033416;28;20032;-72
2023/07/19 03:19:15;;;;;;;9.40;5.57;;;13.40;99.90;;;;;;5033437;28;20108;-72
2023/07/19 03:21:41;;;;;;;9.18;6.25;;;13.50;99.90;;;;;;5033009;28;20391;-74
2023/07/19 03:24:08;;;;;;;8.60;5.93;;;13.50;99.90;;;;;;5033371;28;20033;-73
2023/07/19 03:26:34;;;;;;;6.50;5.63;;;13.50;99.90;;;;;;5032985;28;20036;-72
2023/07/19 03:28:59;;;;;;;10.07;6.32;;;13.60;99.90;;;;;;5032691;28;20499;-73
2023/07/19 03:31:25;;;;;;;8.05;5.13;;;13.60;99.90;;;;;;5033344;28;20030;-72
2023/07/19 03:33:51;;;;;;;9.10;5.93;;;13.50;99.90;;;;;;5033256;28;20033;-74
2023/07/19 03:36:16;;;;;;;7.53;6.03;;;13.50;99.90;;;;;;5033189;28;20036;-73
2023/07/19 03:38:42;;;;;;;9.05;6.05;;;13.50;99.90;;;;;;5033249;28;20061;-73
2023/07/19 03:41:08;;;;;;;8.32;5.88;;;13.60;99.90;;;;;;5033204;28;20029;-73
2023/07/19 03:43:35;;;;;;;11.18;6.68;;;13.60;99.90;;;;;;5033281;28;20025;-72
2023/07/19 03:46:00;;;;;;;8.10;5.68;;;13.60;99.90;;;;;;5033380;28;20490;-72
2023/07/19 03:48:26;;;;;;;9.02;6.28;;;13.60;99.90;;;;;;5033180;28;20030;-73
2023/07/19 03:51:00;;;;;;;9.30;6.22;;;13.60;99.90;;;;;;5033249;28;20034;-73
2023/07/19 03:53:26;;;;;;;10.63;6.47;;;13.60;99.90;;;;;;5033095;28;20113;-73
2023/07/19 03:55:54;;;;;;;8.85;5.80;;;13.70;99.90;;;;;;5032875;28;20057;-73
2023/07/19 03:58:19;;;;;;;8.07;5.78;;;13.70;99.90;;;;;;5033258;28;20082;-73
2023/07/19 04:00:45;;;;;;;8.82;5.78;;;13.80;99.90;;;;;;5033114;28;20038;-72
2023/07/19 04:03:10;;;;;;;7.97;6.63;;;13.80;99.90;;;;;;5032647;28;20033;-73
2023/07/19 04:05:36;;;;;;;10.15;6.90;;;13.90;99.90;;;;;;5032622;28;20026;-74
2023/07/19 04:08:01;;;;;;;9.30;6.45;;;13.90;99.90;;;;;;5032648;28;20075;-73
2023/07/19 04:10:27;;;;;;;10.38;7.00;;;14.00;99.90;;;;;;5032900;28;20033;-73
2023/07/19 04:12:52;;;;;;;10.35;6.85;;;14.10;99.90;;;;;;5036870;28;20061;-73
2023/07/19 04:15:18;;;;;;;11.73;6.80;;;14.10;99.90;;;;;;5036411;28;20108;-73
2023/07/19 04:17:43;;;;;;;9.27;6.53;;;14.20;99.90;;;;;;5036684;28;20107;-74
2023/07/19 04:20:10;;;;;;;10.27;6.13;;;14.30;99.90;;;;;;5036350;28;20184;-73
2023/07/19 04:22:35;;;;;;;10.52;7.53;;;14.40;99.90;;;;;;5036699;28;20036;-72
2023/07/19 04:25:03;;;;;;;7.18;5.93;;;14.50;99.90;;;;;;5036658;28;20038;-72
2023/07/19 04:27:29;;;;;;;12.65;7.90;;;14.60;99.90;;;;;;5036629;28;20049;-74
2023/07/19 04:29:54;;;;;;;11.35;7.05;;;14.70;99.90;;;;;;5036198;28;20495;-74
2023/07/19 04:32:20;;;;;;;10.93;6.10;;;14.70;99.90;;;;;;5037057;28;20040;-73
2023/07/19 04:34:45;;;;;;;11.90;7.38;;;14.80;99.90;;;;;;5036453;28;20036;-72
2023/07/19 04:37:11;;;;;;;11.93;6.63;;;14.90;99.90;;;;;;5036353;28;20057;-73
2023/07/19 04:39:37;;;;;;;11.85;6.70;;;15.00;99.90;;;;;;5036428;28;20030;-73
2023/07/19 04:42:02;;;;;;;15.23;6.60;;;15.10;94.90;;;;;;5036299;28;20036;-74
2023/07/19 04:44:28;;;;;;;8.75;5.72;;;15.20;86.80;;;;;;5036244;28;20041;-73
2023/07/19 04:46:54;;;;;;;11.05;6.25;;;15.20;86.10;;;;;;5036614;28;20021;-74
2023/07/19 04:49:19;;;;;;;12.80;6.10;;;15.30;90.90;;;;;;5036069;28;20502;-73
2023/07/19 04:51:45;;;;;;;7.75;5.68;;;15.50;78.90;;;;;;5035655;28;20018;-73
2023/07/19 04:54:10;;;;;;;11.48;5.50;;;15.60;77.40;;;;;;5036079;28;20033;-72
2023/07/19 04:56:36;;;;;;;10.57;6.60;;;15.80;74.40;;;;;;5036032;28;20216;-73
2023/07/19 04:59:02;;;;;;;9.18;5.00;;;15.90;54.90;;;;;;5035563;28;20025;-74
2023/07/19 05:01:27;;;;;;;10.95;5.57;;;16.10;55.30;;;;;;5035618;28;20021;-73
2023/07/19 05:03:53;;;;;;;10.65;5.10;;;16.30;41.50;;;;;;5035897;28;20057;-74
2023/07/19 05:06:18;;;;;;;9.18;5.63;;;16.70;38.20;;;;;;5035908;28;20033;-74
2023/07/19 05:08:44;;;;;;;9.48;5.68;;;17.20;12.30;;;;;;5035289;28;20079;-73
2023/07/19 05:11:09;;;;;;;11.30;5.78;;;17.30;1.00;;;;;;5035384;28;20021;-73
2023/07/19 05:13:35;;;;;;;8.07;5.38;;;17.60;1.00;;;;;;5035780;28;20411;-73
2023/07/19 05:16:03;;;;;;;10.10;5.80;;;17.90;1.00;;;;;;5035678;28;20538;-73
2023/07/19 05:18:29;;;;;;;15.05;6.07;;;18.00;1.00;;;;;;5035759;28;20510;-73
2023/07/19 05:20:54;;;;;;;8.63;5.55;;;18.00;1.00;;;;;;5035600;28;20026;-73
2023/07/19 05:23:20;;;;;;;9.13;5.43;;;18.00;1.00;;;;;;5034926;28;20429;-73
2023/07/19 05:25:46;;;;;;;9.50;5.30;;;18.00;1.00;;;;;;5035482;28;20538;-72
2023/07/19 05:28:12;;;;;;;12.38;5.72;;;18.00;1.00;;;;;;5034942;28;20021;-73
2023/07/19 05:30:37;;;;;;;10.13;5.15;;;18.00;1.00;;;;;;5035408;28;20078;-73
2023/07/19 05:33:03;;;;;;;12.95;6.13;;;17.90;1.00;;;;;;5035343;28;20036;-72
2023/07/19 05:35:31;;;;;;;12.63;6.32;;;17.80;1.00;;;;;;5035275;28;20108;-72
2023/07/19 05:37:56;;;;;;;10.00;5.57;;;17.80;1.00;;;;;;5035296;28;20472;-73
2023/07/19 05:40:22;;;;;;;11.82;6.43;;;17.90;1.00;;;;;;5035187;28;20032;-73
2023/07/19 05:42:47;;;;;;;13.43;5.95;;;18.10;1.00;;;;;;5034714;28;20072;-73
2023/07/19 05:45:13;;;;;;;10.05;5.78;;;18.30;1.00;;;;;;5035056;28;20075;-72
2023/07/19 05:47:38;;;;;;;10.55;5.35;;;18.50;1.00;;;;;;5034671;28;20076;-73
2023/07/19 05:50:04;;;;;;;10.82;5.47;;;18.60;1.00;;;;;;5034810;28;20037;-74
2023/07/19 05:52:30;;;;;;;11.15;5.32;;;18.80;1.00;;;;;;5034530;28;20029;-74
2023/07/19 05:54:56;;;;;;;10.50;4.90;;;18.90;99.90;;;;;;5034609;28;20021;-73
2023/07/19 05:57:21;;;;;;;10.27;4.90;;;19.00;99.90;;;;;;5034268;28;20076;-73
2023/07/19 05:59:47;;;;;;;8.70;4.97;;;19.10;99.90;;;;;;5034665;28;20038;-73
2023/07/19 06:02:12;;;;;;;11.80;5.47;;;19.30;99.90;;;;;;5034715;28;20099;-72
2023/07/19 06:04:38;;;;;;;8.88;5.25;;;19.20;99.90;;;;;;5034669;28;20036;-73
2023/07/19 06:07:04;;;;;;;11.18;5.32;;;19.00;99.90;;;;;;5034695;28;20036;-73
2023/07/19 06:09:30;;;;;;;14.57;7.00;;;19.20;99.90;;;;;;5034244;28;20083;-73
2023/07/19 06:11:57;;;;;;;14.32;6.00;;;19.40;99.90;;;;;;5034095;28;20107;-72
2023/07/19 06:14:23;;;;;;;10.63;6.03;;;19.50;1.00;;;;;;5034446;28;20476;-72
2023/07/19 06:16:49;;;;;;;10.90;5.82;;;19.70;1.00;;;;;;5034438;28;20039;-73
2023/07/19 06:19:16;;;;;;;11.93;5.68;;;20.00;99.90;;;;;;5033828;28;20558;-73
2023/07/19 06:21:41;;;;;;;10.60;5.70;;;19.90;99.90;;;;;;5033349;28;20044;-73
2023/07/19 06:24:07;;;;;;;10.73;5.22;;;19.50;99.90;;;;;;5033394;28;20025;-74
2023/07/19 06:26:33;;;;;;;8.57;5.07;;;19.10;1.00;;;;;;5042633;28;20013;-72
2023/07/19 06:28:58;;;;;;;12.52;5.65;;;19.00;1.00;;;;;;5043838;28;20048;-73
2023/07/19 06:31:24;;;;;;;9.75;4.85;;;18.90;30.00;;;;;;5034160;28;20426;-72
2023/07/19 06:33:49;;;;;;;12.82;5.10;;;19.10;99.90;;;;;;5033239;28;20690;-73
2023/07/19 06:36:15;;;;;;;15.38;5.53;;;19.30;49.90;;;;;;5033456;28;20138;-73
2023/07/19 06:38:40;;;;;;;8.05;5.05;;;19.60;1.00;;;;;;5033985;28;20045;-72
2023/07/19 06:41:06;;;;;;;10.13;4.93;;;19.60;1.00;;;;;;5033632;28;20108;-73
2023/07/19 06:43:32;;;;;;;10.45;5.03;;;19.60;99.90;;;;;;5033608;28;20033;-72
2023/07/19 06:45:58;;;;;;;12.95;5.07;;;19.60;84.20;;;;;;5033676;28;20033;-72
2023/07/19 06:48:23;;;;;;;9.02;4.80;;;19.70;1.00;;;;;;5033563;28;20056;-72
2023/07/19 06:50:49;;;;;;;9.18;5.20;;;19.60;99.90;;;;;;5032826;28;20028;-72
2023/07/19 06:53:16;;;;;;;11.80;5.22;;;19.50;99.90;;;;;;5033090;28;20080;-72
2023/07/19 06:55:42;;;;;;;9.40;5.28;;;19.50;1.00;;;;;;5031823;28;20052;-74
2023/07/19 06:58:07;;;;;;;10.80;5.30;;;19.60;1.00;;;;;;5032985;28;20507;-72
2023/07/19 07:00:33;;;;;;;14.10;5.72;;;19.50;99.90;;;;;;5032866;28;20022;-73
2023/07/19 07:02:58;;;;;;;8.98;5.07;;;19.90;99.90;;;;;;5032788;28;20030;-73
2023/07/19 07:05:24;;;;;;;10.30;5.50;;;20.40;1.00;;;;;;5033241;28;20033;-73
2023/07/19 07:07:49;;;;;;;13.35;5.32;;;20.30;99.90;;;;;;5033054;28;20033;-75
2023/07/19 07:10:15;;;;;;;12.80;6.00;;;20.10;93.10;;;;;;5032398;28;20025;-73
2023/07/19 07:12:42;;;;;;;12.18;6.03;;;20.00;99.90;;;;;;5032549;28;20040;-71
2023/07/19 07:15:08;;;;;;;12.48;6.32;;;20.10;99.90;;;;;;5032243;28;20048;-72
2023/07/19 07:17:33;;;;;;;13.50;6.22;;;20.20;57.40;;;;;;5032482;28;20032;-72
2023/07/19 07:19:59;;;;;;;14.05;5.78;;;20.50;99.90;;;;;;5032835;28;20061;-71
2023/07/19 07:22:24;;;;;;;10.52;6.18;;;20.70;1.00;;;;;;5032838;28;20033;-72
2023/07/19 07:24:50;;;;;;;9.45;5.93;;;20.90;99.90;;;;;;5033316;28;20458;-72
2023/07/19 07:27:15;;;;;;;12.48;6.50;;;21.60;1.00;;;;;;5032899;28;20032;-72
2023/07/19 07:29:42;;;;;;;10.77;6.30;;;21.60;1.00;;;;;;5032708;28;20076;-72
2023/07/19 07:32:10;;;;;;;13.32;6.28;;;21.60;99.90;;;;;;5034327;28;20028;-73
2023/07/19 07:34:36;;;;;;;13.60;6.13;;;21.30;99.90;;;;;;5013564;28;20396;-72
2023/07/19 07:37:02;;;;;;;11.60;6.18;;;21.20;1.00;;;;;;5031719;28;20030;-73
2023/07/19 07:39:28;;;;;;;13.90;6.35;;;21.40;99.90;;;;;;5031996;28;20120;-73
2023/07/19 07:41:53;;;;;;;11.93;6.32;;;21.00;99.90;;;;;;5032402;28;20113;-73
2023/07/19 07:44:19;;;;;;;11.88;6.10;;;20.90;1.00;;;;;;5032337;28;20502;-73
2023/07/19 07:46:46;;;;;;;11.35;6.10;;;20.80;91.60;;;;;;5036472;28;20111;-73
2023/07/19 07:49:12;;;;;;;11.05;5.55;;;20.80;1.00;;;;;;5036771;28;20041;-72
2023/07/19 07:51:38;;;;;;;10.85;5.35;;;20.90;99.90;;;;;;5036885;28;20025;-72
2023/07/19 07:54:04;;;;;;;13.68;5.60;;;20.90;1.00;;;;;;5036476;28;20082;-72
2023/07/19 07:56:29;;;;;;;13.45;5.95;;;20.80;99.90;;;;;;5036227;28;20021;-73
2023/07/19 07:58:55;;;;;;;10.82;5.03;;;20.70;1.00;;;;;;5033761;28;20036;-73
2023/07/19 08:01:20;;;;;;;8.80;5.05;;;20.80;99.90;;;;;;5036962;28;20048;-72
2023/07/19 08:03:46;;;;;;;9.82;5.35;;;21.10;99.90;;;;;;5036787;28;20392;-73
2023/07/19 08:06:11;;;;;;;10.75;5.13;;;21.30;99.90;;;;;;5036726;28;20029;-73
2023/07/19 08:08:37;;;;;;;8.68;4.60;;;21.50;99.90;;;;;;5036246;28;20053;-73
2023/07/19 08:11:05;;;;;;;9.23;5.25;;;22.10;99.90;;;;;;5036337;28;20502;-73
2023/07/19 08:13:30;;;;;;;9.40;4.55;;;22.90;99.90;;;;;;5036851;28;20399;-73
2023/07/19 08:15:56;;;;;;;9.70;4.50;;;22.90;99.90;;;;;;5036795;28;20030;-74
2023/07/19 08:18:21;;;;;;;8.93;4.15;;;22.90;99.90;;;;;;5036821;28;20107;-73
2023/07/19 08:20:48;;;;;;;10.75;4.80;;;22.80;99.90;;;;;;5036478;28;20029;-73
2023/07/19 08:23:14;;;;;;;9.32;4.80;;;22.90;99.90;;;;;;5036370;28;20032;-72
2023/07/19 08:25:41;;;;;;;9.50;5.00;;;22.60;99.90;;;;;;5035989;28;20026;-72
2023/07/19 08:28:07;;;;;;;7.00;3.80;;;22.40;99.90;;;;;;5036318;28;20025;-72
2023/07/19 08:30:32;;;;;;;12.82;4.53;;;22.20;99.90;;;;;;5035580;28;20096;-73
2023/07/19 08:32:58;;;;;;;7.57;4.32;;;22.00;1.00;;;;;;5035969;28;20030;-72
2023/07/19 08:35:23;;;;;;;9.02;4.35;;;21.90;1.00;;;;;;5035828;28;20033;-72
2023/07/19 08:37:49;;;;;;;9.68;4.93;;;21.70;38.40;;;;;;5035061;28;20026;-72
2023/07/19 08:40:15;;;;;;;10.18;4.35;;;21.60;99.90;;;;;;5035825;28;20041;-73
2023/07/19 08:42:42;;;;;;;10.15;4.03;;;21.80;99.90;;;;;;5035611;28;20491;-73
2023/07/19 08:45:10;;;;;;;7.57;3.50;;;21.80;99.90;;;;;;5036044;28;20037;-73
2023/07/19 08:47:38;;;;;;;6.75;3.20;;;22.00;1.00;;;;;;5035568;28;20030;-72
2023/07/19 08:50:05;;;;;;;7.13;2.92;;;22.10;99.90;;;;;;5035395;28;20072;-72
2023/07/19 08:52:32;;;;;;;5.68;3.30;;;22.60;99.90;;;;;;5035831;28;20487;-72
2023/07/19 08:54:59;;;;;;;8.38;3.33;;;22.20;19.90;;;;;;5035608;28;20449;-73
2023/07/19 08:57:24;;;;;;;8.57;3.70;;;22.30;99.90;;;;;;5030961;28;20072;-72
2023/07/19 08:59:50;;;;;;;7.88;3.47;;;22.50;40.90;;;;;;5035478;28;20041;-72
2023/07/19 09:02:15;;;;;;;6.90;2.92;;;23.10;1.00;;;;;;5035037;28;20026;-72
2023/07/19 09:05:09;;;;;;;6.47;2.90;;;23.60;99.90;;;;;;5034274;28;20037;-71
2023/07/19 09:07:36;;;;;;;4.95;3.10;;;24.70;99.90;;;;;;5032266;28;20025;-71
2023/07/19 09:10:02;;;;;;;7.95;3.22;;;24.40;99.90;;;;;;5035360;28;20087;-71
2023/07/19 09:12:45;;;;;;;14.48;3.08;;;23.80;99.90;;;;;;5030151;28;20083;-71
2023/07/19 09:15:12;;;;;;;27.80;5.40;;;24.00;99.90;;;;;;5034546;28;20029;-72
2023/07/19 09:17:44;;;;;;;6.93;2.80;;;23.90;99.90;;;;;;5033644;28;20146;-71
2023/07/19 09:20:12;;;;;;;5.35;2.40;;;23.80;99.90;;;;;;5034174;28;20136;-70
2023/07/19 09:22:38;;;;;;;5.28;2.63;;;24.10;99.90;;;;;;5034488;28;20029;-70
2023/07/19 09:25:06;;;;;;;6.65;2.28;;;24.40;99.90;;;;;;5042553;28;20478;-70
2023/07/19 09:27:32;;;;;;;5.47;2.15;;;24.60;99.90;;;;;;5034166;28;20475;-70
2023/07/19 09:29:59;;;;;;;7.00;2.60;;;25.70;99.90;;;;;;5034238;28;20044;-73
2023/07/19 09:32:25;;;;;;;7.10;2.67;;;26.60;99.90;;;;;;5034543;28;20039;-72
2023/07/19 09:34:54;;;;;;;8.60;2.92;;;26.90;99.90;;;;;;5034036;28;20033;-72
2023/07/19 09:37:22;;;;;;;9.60;4.55;;;26.10;99.90;;;;;;5037722;28;20124;-71
2023/07/19 09:39:48;;;;;;;6.45;2.97;;;25.40;99.90;;;;;;5055058;28;20035;-71
2023/07/19 09:42:14;;;;;;;8.93;3.47;;;25.80;99.90;;;;;;5044868;28;20164;-72
2023/07/19 09:44:40;;;;;;;11.63;3.70;;;25.60;99.90;;;;;;5034331;28;20121;-72
2023/07/19 09:47:08;;;;;;;6.28;3.30;;;24.90;99.90;;;;;;5028378;28;20497;-72
2023/07/19 09:49:36;;;;;;;7.50;3.45;;;24.60;99.90;;;;;;5032478;28;20476;-70
2023/07/19 09:52:03;;;;;;;8.15;3.20;;;24.00;99.90;;;;;;5034000;28;20060;-71
2023/07/19 09:54:31;;;;;;;6.47;2.40;;;23.90;99.90;;;;;;5034624;28;20399;-71
2023/07/19 09:56:57;;;;;;;6.22;2.35;;;23.70;99.90;;;;;;5033735;28;20061;-72
2023/07/19 09:59:27;;;;;;;4.25;2.38;;;23.30;1.00;;;;;;5033686;28;20455;-71
2023/07/19 10:01:53;;;;;;;6.90;2.40;;;23.50;99.90;;;;;;5032920;28;20091;-70
2023/07/19 10:04:27;;;;;;;5.90;2.70;;;23.60;99.90;;;;;;5033049;28;20033;-72
2023/07/19 10:09:47;;;;;;;6.82;2.78;;;23.50;1.00;;;;;;5109964;27;20389;-68
2023/07/19 10:15:00;;;;;;;7.10;2.78;;;23.40;99.90;;;;;;5143044;27;20754;-67
2023/07/19 10:17:29;;;;;;;7.97;3.00;;;23.10;2.20;;;;;;5102823;28;20025;-68
2023/07/19 10:20:05;;;;;;;5.55;2.83;;;23.40;1.00;;;;;;5109222;28;20384;-68
2023/07/19 10:25:36;;;;;;;6.72;3.03;;;23.50;1.00;;;;;;5069864;28;20391;-69
2023/07/19 10:28:05;;;;;;;8.00;2.90;;;23.70;1.00;;;;;;5030216;28;20022;-69
2023/07/19 10:30:52;;;;;;;7.88;3.00;;;23.60;1.00;;;;;;5037703;28;20021;-69
2023/07/19 10:33:21;;;;;;;7.93;3.17;;;24.00;1.00;;;;;;5059733;28;20490;-70
2023/07/19 10:35:49;;;;;;;7.70;3.55;;;24.10;99.90;;;;;;5065182;28;20071;-69
2023/07/19 10:38:17;;;;;;;7.35;3.35;;;24.10;1.00;;;;;;5067520;28;20098;-70
2023/07/19 10:40:45;;;;;;;8.95;3.60;;;24.30;1.00;;;;;;5064929;28;20029;-68
2023/07/19 10:43:11;;;;;;;6.80;3.55;;;24.60;1.00;;;;;;5051761;28;20143;-69
2023/07/19 10:45:38;;;;;;;15.80;4.22;;;24.00;1.00;;;;;;5049907;28;20036;-69
2023/07/19 10:48:05;;;;;;;9.55;3.10;;;23.80;99.90;;;;;;5050090;28;20050;-69
2023/07/19 10:50:30;;;;;;;11.75;3.20;;;23.80;99.90;;;;;;5049655;28;20467;-69
2023/07/19 10:52:56;;;;;;;6.72;3.25;;;23.50;99.90;;;;;;5050066;28;20025;-69
2023/07/19 10:55:21;;;;;;;6.43;3.08;;;23.20;99.90;;;;;;5049829;28;20036;-70
2023/07/19 10:57:47;;;;;;;10.55;3.15;;;23.30;99.90;;;;;;5062936;28;20040;-70
2023/07/19 11:00:13;;;;;;;4.68;2.97;;;23.50;99.90;;;;;;5067807;28;20037;-69
2023/07/19 11:02:40;;;;;;;8.45;3.20;;;23.70;99.90;;;;;;5054023;28;20037;-69
2023/07/19 11:05:07;;;;;;;8.65;3.17;;;23.70;99.90;;;;;;5049504;28;20041;-69
2023/07/19 11:07:33;;;;;;;8.38;3.30;;;23.90;99.90;;;;;;5049773;28;20391;-69
2023/07/19 11:10:01;;;;;;;9.10;3.05;;;23.90;99.90;;;;;;5053313;28;20491;-71
2023/07/19 11:12:27;;;;;;;10.13;3.70;;;23.90;99.90;;;;;;5049527;28;20027;-69
2023/07/19 11:14:58;;;;;;;10.63;3.20;;;23.50;99.90;;;;;;5049054;28;20033;-69
2023/07/19 11:17:26;;;;;;;10.80;3.75;;;23.60;99.90;;;;;;5049987;28;20037;-69
2023/07/19 11:19:52;;;;;;;7.97;3.40;;;24.00;99.90;;;;;;5050688;28;20033;-71
2023/07/19 11:22:23;;;;;;;4.35;2.92;;;24.10;99.90;;;;;;5052886;28;20486;-70
2023/07/19 11:24:49;;;;;;;8.27;4.00;;;24.20;1.00;;;;;;5049010;28;20049;-70
2023/07/19 11:27:16;;;;;;;8.38;4.18;;;24.30;1.00;;;;;;5049993;28;20029;-70
2023/07/19 11:29:43;;;;;;;12.13;5.40;;;24.40;1.00;;;;;;5049091;28;20125;-69
2023/07/19 11:32:16;;;;;;;14.32;5.53;;;24.40;1.00;;;;;;5050319;28;20430;-70
2023/07/19 11:34:48;;;;;;;15.57;5.57;;;24.20;1.00;;;;;;5051160;28;20503;-71
2023/07/19 11:37:18;;;;;;;9.13;4.32;;;24.40;1.00;;;;;;5054108;28;20082;-70
2023/07/19 11:39:45;;;;;;;16.63;5.00;;;24.90;1.00;;;;;;5055272;28;20116;-71
2023/07/19 11:42:11;;;;;;;11.88;5.13;;;24.80;1.00;;;;;;5049909;28;20111;-70
2023/07/19 11:44:44;;;;;;;13.52;5.20;;;24.20;1.00;;;;;;5042394;28;20038;-69
2023/07/19 11:47:11;;;;;;;9.90;4.72;;;23.60;45.50;;;;;;5040068;28;20030;-70
2023/07/19 11:49:36;;;;;;;9.93;4.47;;;23.80;1.00;;;;;;5047970;28;20491;-70
2023/07/19 11:52:02;;;;;;;10.65;5.07;;;24.00;1.00;;;;;;5041485;28;20027;-70
2023/07/19 11:54:28;;;;;;;15.88;4.75;;;23.70;1.00;;;;;;5050037;28;20063;-70
2023/07/19 11:56:54;;;;;;;10.68;4.57;;;23.80;71.70;;;;;;5046946;28;20033;-70
2023/07/19 11:59:19;;;;;;;12.15;5.40;;;23.80;1.00;;;;;;5038605;28;20033;-69
2023/07/19 12:01:45;;;;;;;8.40;4.70;;;23.10;61.80;;;;;;5036360;28;20053;-69
2023/07/19 12:04:10;;;;;;;13.32;4.50;;;23.20;99.90;;;;;;5047373;28;20061;-70
2023/07/19 12:06:36;;;;;;;12.52;5.20;;;23.10;64.10;;;;;;5048217;28;20025;-69
2023/07/19 12:09:02;;;;;;;11.60;5.00;;;22.90;51.90;;;;;;5037815;28;20033;-70
2023/07/19 12:11:27;;;;;;;9.23;5.20;;;22.70;81.50;;;;;;5050524;28;20030;-70
2023/07/19 12:13:56;;;;;;;15.40;5.00;;;22.50;99.90;;;;;;5054546;28;20020;-69
2023/07/19 12:16:22;;;;;;;9.85;4.40;;;22.70;99.90;;;;;;5036046;28;20036;-69
2023/07/19 12:18:47;;;;;;;13.95;4.85;;;22.80;99.90;;;;;;5035014;28;20037;-69
2023/07/19 12:21:13;;;;;;;13.80;5.28;;;22.80;99.90;;;;;;5036065;28;20029;-69
2023/07/19 12:23:39;;;;;;;10.27;5.40;;;22.90;99.90;;;;;;5035875;28;20140;-69
2023/07/19 12:26:05;;;;;;;14.15;5.80;;;22.80;34.60;;;;;;5040248;28;20100;-69
2023/07/19 12:28:30;;;;;;;13.35;5.50;;;22.80;99.90;;;;;;5039571;28;20025;-70
2023/07/19 12:30:56;;;;;;;12.27;5.93;;;23.30;1.00;;;;;;5043278;28;20025;-70
2023/07/19 12:33:21;;;;;;;11.98;5.07;;;23.70;1.00;;;;;;5053984;28;20032;-72
2023/07/19 12:35:47;;;;;;;10.68;5.53;;;23.90;99.90;;;;;;5051925;28;20029;-70
2023/07/19 12:38:14;;;;;;;14.50;5.55;;;24.20;99.90;;;;;;5050667;28;20033;-71
2023/07/19 12:40:40;;;;;;;11.95;5.45;;;24.70;99.90;;;;;;5049169;28;20036;-69
2023/07/19 12:43:06;;;;;;;12.80;5.68;;;24.80;99.90;;;;;;5054405;28;20501;-69
2023/07/19 12:45:31;;;;;;;9.60;5.28;;;24.80;99.90;;;;;;5050743;28;20029;-69
2023/07/19 12:47:57;;;;;;;12.65;5.35;;;24.80;99.90;;;;;;5033611;28;20034;-70
2023/07/19 12:50:24;;;;;;;13.60;5.65;;;24.80;99.90;;;;;;5034757;28;20035;-69